Time;durP1;ratioP1;P1;durP2;ratioP2;P2;SDS_P1;SDS_P2;PMS_P1;PMS_P2;Temp;Humidity;BMP_temperature;BMP_pressure;BME280_temperature;BME280_humidity;BME280_pressure;Samples;Min_cycle;Max_cycle;Signal;HPM_P1;HPM_P2
2023/08/25 08:48:03;;;;;;;12.10;9.95;;;;;;;18.48;100.00;100583.66;5069361;28;20375;-72
2023/08/25 08:50:29;;;;;;;11.60;10.45;;;;;;;18.47;100.00;100576.53;5067439;28;20033;-72
2023/08/25 08:52:56;;;;;;;12.05;10.85;;;;;;;18.50;100.00;100589.66;5069292;28;20460;-78
2023/08/25 08:55:22;;;;;;;13.20;11.00;;;;;;;18.46;100.00;100607.75;5069213;28;20094;-72
2023/08/25 08:57:49;;;;;;;13.60;11.65;;;;;;;18.46;100.00;100605.00;5068158;28;20449;-71
2023/08/25 09:00:18;;;;;;;12.20;11.00;;;;;;;18.45;100.00;100597.91;5052401;28;20029;-71
2023/08/25 09:02:48;;;;;;;12.90;11.63;;;;;;;18.52;100.00;100592.91;5046571;28;20029;-72
2023/08/25 09:05:15;;;;;;;14.50;11.15;;;;;;;18.52;100.00;100576.47;5049170;28;20034;-72
2023/08/25 09:07:40;;;;;;;12.15;10.95;;;;;;;18.51;100.00;100555.69;5049192;28;20071;-71
2023/08/25 09:10:07;;;;;;;12.27;10.98;;;;;;;18.47;100.00;100572.97;5051998;28;20472;-72
2023/08/25 09:12:34;;;;;;;12.63;10.65;;;;;;;18.53;100.00;100611.00;5049267;28;20028;-72
2023/08/25 09:15:00;;;;;;;12.77;11.13;;;;;;;18.53;100.00;100615.66;5049215;28;20018;-72
2023/08/25 09:17:25;;;;;;;11.85;10.68;;;;;;;18.58;100.00;100580.84;5049128;28;20298;-72
2023/08/25 09:19:50;;;;;;;13.15;10.98;;;;;;;18.60;100.00;100562.19;5049500;28;20111;-72
2023/08/25 09:22:17;;;;;;;13.65;10.50;;;;;;;18.62;100.00;100531.75;5066355;28;20108;-72
2023/08/25 09:24:43;;;;;;;13.68;10.88;;;;;;;18.69;100.00;100537.72;5067824;28;20025;-71
2023/08/25 09:27:29;;;;;;;15.15;10.40;;;;;;;18.70;100.00;100561.25;5068604;28;20505;-69
2023/08/25 09:30:06;;;;;;;11.85;10.50;;;;;;;18.70;100.00;100582.38;5068472;28;20037;-70
2023/08/25 09:32:32;;;;;;;12.30;10.27;;;;;;;18.78;100.00;100581.75;5069029;28;20044;-68
2023/08/25 09:35:12;;;;;;;11.98;10.23;;;;;;;18.79;100.00;100594.38;5069122;28;20087;-68
2023/08/25 09:37:41;;;;;;;14.13;10.50;;;;;;;18.76;100.00;100586.72;5049650;28;20048;-69
2023/08/25 09:40:15;;;;;;;13.10;11.35;;;;;;;18.75;100.00;100585.91;5051575;28;20100;-69
2023/08/25 09:42:40;;;;;;;14.13;11.55;;;;;;;18.76;100.00;100576.56;5049031;28;20056;-69
2023/08/25 09:45:06;;;;;;;13.27;11.70;;;;;;;18.83;100.00;100569.97;5049007;28;20057;-69
2023/08/25 09:47:32;;;;;;;13.90;11.55;;;;;;;18.85;100.00;100579.53;5048266;28;20056;-69
2023/08/25 09:49:57;;;;;;;13.98;12.48;;;;;;;18.95;100.00;100584.94;5048448;28;20026;-69
2023/08/25 09:52:26;;;;;;;12.27;11.07;;;;;;;18.98;100.00;100586.28;5049250;28;20505;-70
2023/08/25 09:54:52;;;;;;;14.13;11.82;;;;;;;19.02;100.00;100579.13;5051262;28;20061;-76
2023/08/25 09:57:17;;;;;;;12.48;11.23;;;;;;;19.01;100.00;100584.88;5046836;28;20457;-70
2023/08/25 09:59:43;;;;;;;12.23;11.02;;;;;;;19.01;100.00;100574.75;5038765;28;20036;-69
2023/08/25 10:02:11;;;;;;;12.82;11.50;;;;;;;19.18;100.00;100579.78;5042897;28;20055;-69
2023/08/25 10:04:39;;;;;;;11.95;10.82;;;;;;;19.17;100.00;100580.88;5048875;28;20024;-68
2023/08/25 10:07:05;;;;;;;12.00;10.45;;;;;;;19.25;100.00;100576.72;5055162;28;20056;-68
2023/08/25 10:09:30;;;;;;;12.30;11.05;;;;;;;19.33;100.00;100580.75;5054963;28;20057;-69
2023/08/25 10:11:58;;;;;;;14.63;12.63;;;;;;;19.40;100.00;100578.47;5037213;28;20032;-68
2023/08/25 10:14:26;;;;;;;11.65;10.30;;;;;;;19.50;100.00;100572.88;5037633;28;20091;-69
2023/08/25 10:16:52;;;;;;;13.23;11.85;;;;;;;19.53;100.00;100579.72;5046581;28;20115;-69
2023/08/25 10:19:28;;;;;;;11.77;10.75;;;;;;;19.56;100.00;100593.66;5039533;28;20376;-70
2023/08/25 10:21:55;;;;;;;12.85;11.55;;;;;;;19.55;100.00;100581.06;5034260;28;20424;-69
2023/08/25 10:24:22;;;;;;;12.27;11.15;;;;;;;19.64;100.00;100573.81;5034432;28;20025;-70
2023/08/25 10:26:52;;;;;;;11.57;10.38;;;;;;;19.65;100.00;100588.34;5034769;28;20028;-74
2023/08/25 10:29:20;;;;;;;10.93;9.93;;;;;;;19.78;100.00;100582.19;5034742;28;20021;-72
2023/08/25 10:31:51;;;;;;;9.90;8.90;;;;;;;19.70;100.00;100581.97;5034579;28;20108;-69
2023/08/25 10:34:33;;;;;;;;;;;;;;;19.88;100.00;100588.66;5049350;28;20060;-68
2023/08/25 10:37:12;;;;;;;10.68;9.57;;;;;;;19.76;100.00;100594.53;5034857;28;19912;-68
2023/08/25 10:39:44;;;;;;;10.98;9.60;;;;;;;19.71;100.00;100589.91;5034678;28;20025;-70
2023/08/25 10:42:10;;;;;;;10.65;9.15;;;;;;;19.66;100.00;100593.53;5039031;28;20037;-69
2023/08/25 10:44:41;;;;;;;10.40;9.40;;;;;;;19.61;100.00;100599.09;5035808;28;20030;-73
2023/08/25 10:47:07;;;;;;;10.90;9.82;;;;;;;19.59;100.00;100609.53;5037756;28;20492;-69
2023/08/25 10:49:39;;;;;;;12.10;9.98;;;;;;;19.54;100.00;100608.81;5047870;28;20028;-71
2023/08/25 10:52:13;;;;;;;13.45;11.00;;;;;;;19.47;100.00;100607.22;5053290;28;20125;-69
2023/08/25 10:54:41;;;;;;;12.80;11.00;;;;;;;19.47;100.00;100599.00;5049714;28;20045;-70
2023/08/25 10:57:25;;;;;;;12.52;11.23;;;;;;;19.51;100.00;100596.47;5034164;28;20084;-71
2023/08/25 10:59:54;;;;;;;12.15;10.90;;;;;;;19.49;100.00;100593.22;5034356;28;20026;-69
2023/08/25 11:02:34;;;;;;;13.52;12.10;;;;;;;19.52;100.00;100598.13;5030473;28;20029;-68
2023/08/25 11:05:31;;;;;;;13.07;11.35;;;;;;;19.53;100.00;100587.94;5034227;28;20352;-68
2023/08/25 11:08:24;;;;;;;14.15;11.93;;;;;;;19.60;100.00;100585.69;5033824;28;20029;-67
2023/08/25 11:11:09;;;;;;;13.98;12.57;;;;;;;19.62;100.00;100581.50;5028949;28;20038;-69
2023/08/25 11:13:38;;;;;;;14.98;13.00;;;;;;;19.58;100.00;100577.72;5033858;28;20021;-71
2023/08/25 11:16:12;;;;;;;14.65;12.43;;;;;;;19.60;100.00;100575.50;5047521;28;20036;-70
2023/08/25 11:18:42;;;;;;;16.23;13.52;;;;;;;19.57;100.00;100576.09;5034004;28;20033;-74
2023/08/25 11:21:07;;;;;;;14.82;13.32;;;;;;;19.61;100.00;100574.41;5033620;28;20029;-69
2023/08/25 11:23:44;;;;;;;15.95;14.20;;;;;;;19.68;100.00;100584.22;5032379;28;20013;-68
2023/08/25 11:26:09;;;;;;;18.38;14.70;;;;;;;19.71;100.00;100581.69;5033398;28;20018;-70
2023/08/25 11:28:36;;;;;;;17.05;15.43;;;;;;;19.73;100.00;100584.13;5033592;28;20025;-69
2023/08/25 11:31:03;;;;;;;18.35;16.13;;;;;;;19.73;100.00;100586.88;5033724;28;20025;-67
2023/08/25 11:33:30;;;;;;;17.70;15.77;;;;;;;19.75;100.00;100588.22;5038472;28;20029;-71
2023/08/25 11:35:55;;;;;;;18.10;16.20;;;;;;;19.71;100.00;100587.16;5051330;28;20057;-70
2023/08/25 11:38:21;;;;;;;20.50;17.77;;;;;;;19.69;100.00;100596.81;5049291;28;20072;-69
2023/08/25 11:40:46;;;;;;;20.60;16.00;;;;;;;19.72;100.00;100597.06;5051166;28;20056;-69
2023/08/25 11:43:12;;;;;;;19.55;16.52;;;;;;;19.69;100.00;100607.78;5053423;28;20043;-67
2023/08/25 11:45:38;;;;;;;18.92;16.65;;;;;;;19.71;100.00;100605.59;5046787;28;20033;-70
2023/08/25 11:48:04;;;;;;;19.13;17.23;;;;;;;19.72;100.00;100607.22;5037481;28;20026;-69
2023/08/25 11:50:30;;;;;;;25.30;17.40;;;;;;;19.71;100.00;100611.88;5032724;28;20052;-69
2023/08/25 11:52:56;;;;;;;19.48;17.30;;;;;;;19.65;100.00;100613.84;5033094;28;20083;-70
2023/08/25 11:55:21;;;;;;;20.42;17.48;;;;;;;19.68;100.00;100608.91;5042614;28;20353;-70
2023/08/25 11:57:50;;;;;;;20.33;18.25;;;;;;;19.66;100.00;100598.22;5037045;28;20110;-70
2023/08/25 12:00:16;;;;;;;21.25;19.10;;;;;;;19.65;100.00;100586.41;5033212;28;20085;-69
2023/08/25 12:02:41;;;;;;;22.55;20.15;;;;;;;19.68;100.00;100573.22;5029255;28;20057;-69
2023/08/25 12:05:07;;;;;;;21.48;19.30;;;;;;;19.66;100.00;100571.59;5032928;28;20414;-69
2023/08/25 12:07:37;;;;;;;24.38;21.77;;;;;;;19.65;100.00;100572.69;5037512;28;20478;-69
2023/08/25 12:10:03;;;;;;;23.35;20.95;;;;;;;19.70;100.00;100557.28;5052991;28;20021;-68
2023/08/25 12:12:37;;;;;;;25.02;22.45;;;;;;;19.75;100.00;100546.25;5051370;28;20021;-69
2023/08/25 12:15:06;;;;;;;24.70;22.23;;;;;;;19.88;100.00;100575.72;5039859;28;20076;-70
2023/08/25 12:17:32;;;;;;;23.80;21.45;;;;;;;19.90;100.00;100594.66;5038945;28;20113;-68
2023/08/25 12:19:57;;;;;;;23.75;21.35;;;;;;;19.88;100.00;100589.47;5035460;28;20166;-69
2023/08/25 12:22:24;;;;;;;26.27;23.45;;;;;;;19.92;100.00;100593.25;5050980;28;20353;-69
2023/08/25 12:24:49;;;;;;;26.38;22.23;;;;;;;19.95;100.00;100589.91;5052407;28;20074;-68
2023/08/25 12:27:15;;;;;;;25.70;23.15;;;;;;;19.96;100.00;100588.00;5051326;28;20489;-69
2023/08/25 12:29:41;;;;;;;25.73;23.02;;;;;;;19.95;100.00;100578.94;5052482;28;20368;-70
2023/08/25 12:32:09;;;;;;;27.00;24.25;;;;;;;20.00;100.00;100583.53;5052618;28;20021;-70
2023/08/25 12:34:36;;;;;;;25.88;23.33;;;;;;;20.04;100.00;100586.53;5047617;28;20045;-70
2023/08/25 12:37:03;;;;;;;26.60;23.90;;;;;;;20.03;100.00;100591.19;5031365;28;20461;-71
2023/08/25 12:39:29;;;;;;;27.85;24.95;;;;;;;20.06;100.00;100587.03;5032421;28;20464;-69
2023/08/25 12:41:55;;;;;;;26.90;23.85;;;;;;;20.12;100.00;100574.88;5049684;28;20120;-69
2023/08/25 12:44:21;;;;;;;27.42;24.52;;;;;;;20.20;100.00;100563.25;5051989;28;20025;-71
2023/08/25 12:46:46;;;;;;;25.67;23.15;;;;;;;20.22;100.00;100562.94;5051794;28;20412;-70
2023/08/25 12:49:11;;;;;;;25.13;22.60;;;;;;;20.29;100.00;100557.88;5048685;28;20037;-67
2023/08/25 12:51:37;;;;;;;25.85;23.40;;;;;;;20.35;100.00;100554.75;5044050;28;20024;-72
2023/08/25 12:54:13;;;;;;;27.00;23.60;;;;;;;20.39;100.00;100554.16;5050819;28;20368;-69
2023/08/25 12:56:38;;;;;;;25.00;22.58;;;;;;;20.31;100.00;100550.97;5051725;28;20025;-70
2023/08/25 12:59:04;;;;;;;25.98;23.38;;;;;;;20.38;100.00;100547.03;5052083;28;20547;-68
2023/08/25 13:01:30;;;;;;;26.00;23.60;;;;;;;20.41;100.00;100540.94;5047739;28;20029;-69
2023/08/25 13:03:55;;;;;;;25.33;22.95;;;;;;;20.55;100.00;100550.06;5050709;28;20116;-68
2023/08/25 13:06:20;;;;;;;25.25;22.92;;;;;;;20.69;100.00;100559.19;5039075;28;20033;-69
2023/08/25 13:08:45;;;;;;;24.02;21.77;;;;;;;20.73;100.00;100551.19;5043861;28;20033;-69
2023/08/25 13:11:11;;;;;;;23.10;20.90;;;;;;;20.75;100.00;100548.94;5052432;28;20029;-70
2023/08/25 13:13:36;;;;;;;22.35;20.33;;;;;;;20.75;100.00;100562.69;5051694;28;20017;-69
2023/08/25 13:16:01;;;;;;;22.83;20.65;;;;;;;20.80;100.00;100559.03;5052295;28;20036;-69
2023/08/25 13:18:27;;;;;;;22.00;19.90;;;;;;;20.83;100.00;100569.41;5051802;28;20441;-69
2023/08/25 13:20:52;;;;;;;21.48;19.48;;;;;;;20.80;100.00;100575.53;5041306;28;20037;-70
2023/08/25 13:23:18;;;;;;;21.52;19.52;;;;;;;20.77;100.00;100565.13;5031315;28;20022;-69
2023/08/25 13:25:43;;;;;;;21.67;19.58;;;;;;;20.71;100.00;100556.16;5037605;28;20024;-68
2023/08/25 13:28:09;;;;;;;21.85;19.75;;;;;;;20.74;100.00;100558.28;5050302;28;20154;-69
2023/08/25 13:30:34;;;;;;;20.20;18.30;;;;;;;20.75;100.00;100562.69;5051566;28;20100;-69
2023/08/25 13:32:59;;;;;;;19.13;17.42;;;;;;;20.72;100.00;100571.53;5052522;28;20025;-67
2023/08/25 13:35:25;;;;;;;18.67;16.90;;;;;;;20.75;100.00;100556.38;5053859;28;20337;-67
2023/08/25 13:37:50;;;;;;;19.95;18.05;;;;;;;20.76;100.00;100555.22;5054293;28;20092;-68
2023/08/25 13:40:15;;;;;;;19.63;17.63;;;;;;;20.78;100.00;100553.03;5035323;28;20025;-71
2023/08/25 13:42:41;;;;;;;20.13;18.23;;;;;;;20.81;100.00;100555.16;5035247;28;20413;-72
2023/08/25 13:45:07;;;;;;;19.67;17.77;;;;;;;20.97;100.00;100539.19;5048221;28;20494;-67
2023/08/25 13:47:32;;;;;;;19.35;17.35;;;;;;;21.14;100.00;100546.88;5047989;28;20045;-69
2023/08/25 13:49:58;;;;;;;19.02;17.13;;;;;;;21.34;100.00;100545.69;5035543;28;20124;-70
2023/08/25 13:52:23;;;;;;;18.90;17.20;;;;;;;21.36;100.00;100541.50;5034861;28;20018;-66
2023/08/25 13:54:49;;;;;;;19.80;17.75;;;;;;;21.46;100.00;100547.94;5035115;28;20112;-71
2023/08/25 13:57:14;;;;;;;19.10;17.30;;;;;;;21.50;100.00;100546.19;5038743;28;20029;-68
2023/08/25 13:59:39;;;;;;;19.30;17.20;;;;;;;21.61;100.00;100547.63;5049811;28;20079;-67
2023/08/25 14:02:06;;;;;;;20.23;18.27;;;;;;;21.67;100.00;100538.16;5052638;28;20452;-67
2023/08/25 14:04:31;;;;;;;21.05;18.85;;;;;;;21.76;100.00;100536.31;5055143;28;20443;-68
2023/08/25 14:06:57;;;;;;;20.65;18.52;;;;;;;21.82;100.00;100548.03;5055207;28;20056;-68
2023/08/25 14:09:22;;;;;;;22.15;19.83;;;;;;;21.82;100.00;100544.47;5055266;28;20472;-69
2023/08/25 14:11:47;;;;;;;24.05;21.73;;;;;;;21.70;100.00;100551.31;5054974;28;20027;-69
2023/08/25 14:14:13;;;;;;;24.17;21.67;;;;;;;21.59;100.00;100542.44;5056357;28;20112;-68
2023/08/25 14:16:39;;;;;;;24.48;21.88;;;;;;;21.56;100.00;100540.31;5054916;28;20100;-68
2023/08/25 14:19:04;;;;;;;24.10;21.52;;;;;;;21.48;100.00;100543.72;5052955;28;20379;-67
2023/08/25 14:21:30;;;;;;;23.92;21.42;;;;;;;21.40;100.00;100547.19;5037552;28;20030;-67
2023/08/25 14:23:55;;;;;;;25.13;22.38;;;;;;;21.38;100.00;100549.47;5054968;28;20357;-67
2023/08/25 14:26:21;;;;;;;25.30;22.60;;;;;;;21.35;100.00;100545.38;5054728;28;20082;-69
2023/08/25 14:28:46;;;;;;;25.85;23.15;;;;;;;21.39;100.00;100546.41;5054768;28;20028;-67
2023/08/25 14:31:11;;;;;;;25.55;22.85;;;;;;;21.35;100.00;100536.31;5054959;28;20486;-67
2023/08/25 14:33:37;;;;;;;24.95;22.35;;;;;;;21.35;100.00;100542.63;5054579;28;20031;-70
2023/08/25 14:36:02;;;;;;;26.58;23.77;;;;;;;21.34;100.00;100551.19;5050236;28;20061;-67
2023/08/25 14:38:28;;;;;;;27.20;24.40;;;;;;;21.32;100.00;100540.47;5046357;28;20037;-68
2023/08/25 14:40:53;;;;;;;26.65;23.77;;;;;;;21.34;100.00;100545.69;5034658;28;20025;-69
2023/08/25 14:43:18;;;;;;;28.98;23.95;;;;;;;21.36;100.00;100544.25;5040165;28;20028;-68
2023/08/25 14:45:45;;;;;;;28.13;24.05;;;;;;;21.38;100.00;100555.78;5056353;28;20131;-70
2023/08/25 14:48:10;;;;;;;30.27;24.20;;;;;;;21.39;100.00;100551.06;5045214;28;20112;-69
2023/08/25 14:50:36;;;;;;;27.75;23.30;;;;;;;21.39;100.00;100553.81;5040898;28;20177;-68
2023/08/25 14:53:01;;;;;;;28.17;23.77;;;;;;;21.54;100.00;100558.25;5054442;28;20029;-66
2023/08/25 14:55:26;;;;;;;27.80;23.38;;;;;;;21.62;100.00;100565.81;5053122;28;20025;-69
2023/08/25 14:57:52;;;;;;;29.00;23.83;;;;;;;21.62;100.00;100567.72;5051667;28;20040;-66
2023/08/25 15:00:17;;;;;;;29.95;24.25;;;;;;;21.59;100.00;100569.16;5042065;28;20025;-70
2023/08/25 15:02:43;;;;;;;26.92;23.75;;;;;;;21.55;100.00;100565.38;5051769;28;20021;-69
2023/08/25 15:05:10;;;;;;;26.25;23.45;;;;;;;21.54;100.00;100569.25;5048805;28;20083;-68
2023/08/25 15:07:35;;;;;;;28.08;24.10;;;;;;;21.55;100.00;100568.16;5037737;28;20033;-69
2023/08/25 15:10:03;;;;;;;29.27;24.50;;;;;;;21.53;100.00;100570.38;5065329;28;20094;-69
2023/08/25 15:12:29;;;;;;;29.58;24.90;;;;;;;21.48;100.00;100584.22;5044256;28;20356;-68
2023/08/25 15:14:56;;;;;;;29.23;24.73;;;;;;;21.39;100.00;100586.84;5054671;28;20029;-67
2023/08/25 15:17:22;;;;;;;31.60;26.25;;;;;;;21.33;100.00;100588.91;5049606;28;20032;-70
2023/08/25 15:19:48;;;;;;;30.95;26.30;;;;;;;21.27;100.00;100595.59;5058567;28;20024;-70
2023/08/25 15:22:13;;;;;;;30.70;24.90;;;;;;;21.20;100.00;100598.75;5051481;28;20544;-69
2023/08/25 15:24:38;;;;;;;31.42;25.40;;;;;;;21.17;100.00;100590.31;5047612;28;20100;-69
2023/08/25 15:27:04;;;;;;;29.80;25.70;;;;;;;21.13;100.00;100586.50;5034953;28;20026;-73
2023/08/25 15:29:32;;;;;;;29.90;25.13;;;;;;;21.10;100.00;100582.44;5042388;28;20033;-70
2023/08/25 15:31:57;;;;;;;29.33;24.73;;;;;;;21.11;100.00;100575.00;5043305;28;20026;-71
2023/08/25 15:34:22;;;;;;;31.50;24.77;;;;;;;21.11;100.00;100583.25;5064392;28;20066;-74
2023/08/25 15:36:48;;;;;;;31.35;24.48;;;;;;;21.10;100.00;100585.19;5060404;28;20383;-74
2023/08/25 15:39:13;;;;;;;28.80;23.23;;;;;;;21.09;100.00;100577.22;5052899;28;20025;-70
2023/08/25 15:41:39;;;;;;;27.35;22.95;;;;;;;21.05;100.00;100577.84;5049730;28;20033;-68
2023/08/25 15:44:04;;;;;;;29.02;21.60;;;;;;;21.03;100.00;100582.84;5032759;28;20033;-69
2023/08/25 15:46:29;;;;;;;26.10;20.55;;;;;;;21.03;100.00;100577.34;5042911;28;20094;-72
2023/08/25 15:48:55;;;;;;;27.38;21.23;;;;;;;21.02;100.00;100578.44;5044440;28;20029;-68
2023/08/25 15:51:21;;;;;;;28.13;21.23;;;;;;;21.00;100.00;100574.34;5046571;28;20036;-68
2023/08/25 15:53:46;;;;;;;30.42;21.60;;;;;;;20.98;100.00;100576.59;5047775;28;20025;-67
2023/08/25 15:56:11;;;;;;;34.38;25.67;;;;;;;20.96;100.00;100568.66;5050349;28;20060;-67
2023/08/25 15:58:37;;;;;;;28.02;22.73;;;;;;;20.95;100.00;100580.75;5039861;28;20104;-68
2023/08/25 16:01:02;;;;;;;28.23;22.38;;;;;;;20.94;100.00;100578.31;5037890;28;20037;-67
2023/08/25 16:03:29;;;;;;;29.13;24.10;;;;;;;20.92;100.00;100566.81;5043048;28;20194;-68
